sensor_id;sensor_type;location;lat;lon;timestamp;P1;durP1;ratioP1;P2;durP2;ratioP2
9485;SDS011;4781;48.776;9.200;2023-02-28T00:01:46;5.70;;;3.02;;
9485;SDS011;4781;48.776;9.200;2023-02-28T00:04:15;9.23;;;2.90;;
9485;SDS011;4781;48.776;9.200;2023-02-28T00:06:43;7.33;;;2.65;;
9485;SDS011;4781;48.776;9.200;2023-02-28T00:09:11;6.03;;;2.60;;
9485;SDS011;4781;48.776;9.200;2023-02-28T00:11:40;5.58;;;2.77;;
9485;SDS011;4781;48.776;9.200;2023-02-28T00:14:08;6.62;;;3.42;;
9485;SDS011;4781;48.776;9.200;2023-02-28T00:16:36;6.90;;;2.80;;
9485;SDS011;4781;48.776;9.200;2023-02-28T00:19:05;6.15;;;3.33;;
9485;SDS011;4781;48.776;9.200;2023-02-28T00:21:33;5.22;;;2.90;;
9485;SDS011;4781;48.776;9.200;2023-02-28T00:24:02;7.87;;;3.35;;
9485;SDS011;4781;48.776;9.200;2023-02-28T00:26:30;10.58;;;3.58;;
9485;SDS011;4781;48.776;9.200;2023-02-28T00:28:59;6.83;;;2.98;;
9485;SDS011;4781;48.776;9.200;2023-02-28T00:31:27;6.43;;;3.07;;
9485;SDS011;4781;48.776;9.200;2023-02-28T00:33:55;7.15;;;3.20;;
9485;SDS011;4781;48.776;9.200;2023-02-28T00:36:24;5.80;;;3.00;;
9485;SDS011;4781;48.776;9.200;2023-02-28T00:38:56;6.08;;;3.12;;
9485;SDS011;4781;48.776;9.200;2023-02-28T00:41:25;6.70;;;3.22;;
9485;SDS011;4781;48.776;9.200;2023-02-28T00:43:53;8.15;;;3.10;;
9485;SDS011;4781;48.776;9.200;2023-02-28T00:46:21;5.95;;;2.70;;
9485;SDS011;4781;48.776;9.200;2023-02-28T00:48:50;5.60;;;2.80;;
9485;SDS011;4781;48.776;9.200;2023-02-28T00:51:18;5.80;;;2.80;;
9485;SDS011;4781;48.776;9.200;2023-02-28T00:53:47;6.45;;;2.90;;
9485;SDS011;4781;48.776;9.200;2023-02-28T00:56:15;6.08;;;2.75;;
9485;SDS011;4781;48.776;9.200;2023-02-28T00:58:44;6.58;;;2.87;;
9485;SDS011;4781;48.776;9.200;2023-02-28T01:01:12;7.87;;;3.10;;
9485;SDS011;4781;48.776;9.200;2023-02-28T01:03:40;6.70;;;2.60;;
9485;SDS011;4781;48.776;9.200;2023-02-28T01:06:09;6.90;;;3.00;;
9485;SDS011;4781;48.776;9.200;2023-02-28T01:08:37;5.60;;;2.92;;
9485;SDS011;4781;48.776;9.200;2023-02-28T01:11:07;7.95;;;2.87;;
9485;SDS011;4781;48.776;9.200;2023-02-28T01:13:38;7.45;;;3.17;;
9485;SDS011;4781;48.776;9.200;2023-02-28T01:16:08;8.98;;;4.10;;
9485;SDS011;4781;48.776;9.200;2023-02-28T01:18:36;6.85;;;3.55;;
9485;SDS011;4781;48.776;9.200;2023-02-28T01:21:08;7.55;;;3.92;;
9485;SDS011;4781;48.776;9.200;2023-02-28T01:23:39;7.53;;;3.92;;
9485;SDS011;4781;48.776;9.200;2023-02-28T01:26:10;5.42;;;3.05;;
9485;SDS011;4781;48.776;9.200;2023-02-28T01:28:41;5.85;;;3.15;;
9485;SDS011;4781;48.776;9.200;2023-02-28T01:31:09;7.00;;;2.95;;
9485;SDS011;4781;48.776;9.200;2023-02-28T01:33:38;4.53;;;2.58;;
9485;SDS011;4781;48.776;9.200;2023-02-28T01:36:17;6.08;;;2.55;;
9485;SDS011;4781;48.776;9.200;2023-02-28T01:38:48;6.03;;;3.12;;
9485;SDS011;4781;48.776;9.200;2023-02-28T01:41:18;4.97;;;2.50;;
9485;SDS011;4781;48.776;9.200;2023-02-28T01:43:57;7.12;;;2.75;;
9485;SDS011;4781;48.776;9.200;2023-02-28T01:46:35;4.80;;;2.47;;
9485;SDS011;4781;48.776;9.200;2023-02-28T01:54:11;4.97;;;2.72;;
9485;SDS011;4781;48.776;9.200;2023-02-28T01:56:47;5.85;;;3.05;;
9485;SDS011;4781;48.776;9.200;2023-02-28T01:59:22;6.95;;;3.00;;
9485;SDS011;4781;48.776;9.200;2023-02-28T02:01:54;7.95;;;3.15;;
9485;SDS011;4781;48.776;9.200;2023-02-28T02:04:25;6.33;;;2.60;;
9485;SDS011;4781;48.776;9.200;2023-02-28T02:06:57;5.72;;;2.60;;
9485;SDS011;4781;48.776;9.200;2023-02-28T02:09:28;6.90;;;3.20;;
9485;SDS011;4781;48.776;9.200;2023-02-28T02:11:56;5.47;;;2.72;;
9485;SDS011;4781;48.776;9.200;2023-02-28T02:14:40;6.37;;;2.85;;
9485;SDS011;4781;48.776;9.200;2023-02-28T02:17:29;6.15;;;2.90;;
9485;SDS011;4781;48.776;9.200;2023-02-28T02:29:34;10.72;;;3.30;;
9485;SDS011;4781;48.776;9.200;2023-02-28T02:37:49;8.85;;;3.60;;
9485;SDS011;4781;48.776;9.200;2023-02-28T02:40:22;7.12;;;3.33;;
9485;SDS011;4781;48.776;9.200;2023-02-28T02:48:27;7.12;;;3.80;;
9485;SDS011;4781;48.776;9.200;2023-02-28T02:50:59;7.55;;;3.67;;
9485;SDS011;4781;48.776;9.200;2023-02-28T02:53:34;7.58;;;3.33;;
9485;SDS011;4781;48.776;9.200;2023-02-28T02:56:09;6.75;;;3.58;;
9485;SDS011;4781;48.776;9.200;2023-02-28T02:58:38;8.13;;;3.83;;
9485;SDS011;4781;48.776;9.200;2023-02-28T03:01:14;7.78;;;3.95;;
9485;SDS011;4781;48.776;9.200;2023-02-28T03:03:48;7.67;;;3.85;;
9485;SDS011;4781;48.776;9.200;2023-02-28T03:06:17;9.85;;;3.90;;
9485;SDS011;4781;48.776;9.200;2023-02-28T03:08:45;5.30;;;3.15;;
9485;SDS011;4781;48.776;9.200;2023-02-28T03:11:15;9.55;;;3.95;;
9485;SDS011;4781;48.776;9.200;2023-02-28T03:13:51;6.40;;;3.60;;
9485;SDS011;4781;48.776;9.200;2023-02-28T03:16:48;7.67;;;4.10;;
9485;SDS011;4781;48.776;9.200;2023-02-28T03:22:00;7.28;;;3.65;;
9485;SDS011;4781;48.776;9.200;2023-02-28T03:24:41;7.08;;;3.27;;
9485;SDS011;4781;48.776;9.200;2023-02-28T03:27:27;7.67;;;3.80;;
9485;SDS011;4781;48.776;9.200;2023-02-28T03:32:33;5.92;;;3.60;;
9485;SDS011;4781;48.776;9.200;2023-02-28T03:35:20;7.20;;;4.05;;
9485;SDS011;4781;48.776;9.200;2023-02-28T03:37:56;7.28;;;4.00;;
9485;SDS011;4781;48.776;9.200;2023-02-28T03:40:25;7.00;;;3.95;;
9485;SDS011;4781;48.776;9.200;2023-02-28T03:42:58;8.10;;;3.67;;
9485;SDS011;4781;48.776;9.200;2023-02-28T03:45:30;6.08;;;3.70;;
9485;SDS011;4781;48.776;9.200;2023-02-28T03:48:12;7.30;;;3.70;;
9485;SDS011;4781;48.776;9.200;2023-02-28T03:50:51;8.08;;;4.10;;
9485;SDS011;4781;48.776;9.200;2023-02-28T03:53:38;9.13;;;4.47;;
9485;SDS011;4781;48.776;9.200;2023-02-28T03:56:06;6.22;;;3.87;;
9485;SDS011;4781;48.776;9.200;2023-02-28T04:01:49;7.90;;;3.92;;
9485;SDS011;4781;48.776;9.200;2023-02-28T04:04:17;7.90;;;4.12;;
9485;SDS011;4781;48.776;9.200;2023-02-28T04:06:46;7.97;;;4.10;;
9485;SDS011;4781;48.776;9.200;2023-02-28T04:09:20;7.05;;;4.25;;
9485;SDS011;4781;48.776;9.200;2023-02-28T04:11:51;7.15;;;4.00;;
9485;SDS011;4781;48.776;9.200;2023-02-28T04:14:21;7.37;;;4.08;;
9485;SDS011;4781;48.776;9.200;2023-02-28T04:16:51;7.80;;;4.50;;
9485;SDS011;4781;48.776;9.200;2023-02-28T04:19:19;8.38;;;4.40;;
9485;SDS011;4781;48.776;9.200;2023-02-28T04:21:49;7.65;;;4.55;;
9485;SDS011;4781;48.776;9.200;2023-02-28T04:24:25;6.95;;;4.25;;
9485;SDS011;4781;48.776;9.200;2023-02-28T04:26:53;10.10;;;4.25;;
9485;SDS011;4781;48.776;9.200;2023-02-28T04:29:24;7.75;;;4.15;;
9485;SDS011;4781;48.776;9.200;2023-02-28T04:31:56;8.33;;;4.50;;
9485;SDS011;4781;48.776;9.200;2023-02-28T04:34:26;9.40;;;4.20;;
9485;SDS011;4781;48.776;9.200;2023-02-28T04:36:57;6.80;;;4.28;;
9485;SDS011;4781;48.776;9.200;2023-02-28T04:39:26;8.83;;;4.53;;
9485;SDS011;4781;48.776;9.200;2023-02-28T04:41:54;7.53;;;4.35;;
9485;SDS011;4781;48.776;9.200;2023-02-28T04:44:23;7.90;;;4.33;;
9485;SDS011;4781;48.776;9.200;2023-02-28T04:46:51;9.28;;;4.62;;
9485;SDS011;4781;48.776;9.200;2023-02-28T04:49:20;9.10;;;4.83;;
9485;SDS011;4781;48.776;9.200;2023-02-28T04:51:48;7.47;;;4.17;;
9485;SDS011;4781;48.776;9.200;2023-02-28T04:54:16;7.17;;;4.40;;
9485;SDS011;4781;48.776;9.200;2023-02-28T04:56:45;6.65;;;4.03;;
9485;SDS011;4781;48.776;9.200;2023-02-28T04:59:15;9.13;;;4.47;;
9485;SDS011;4781;48.776;9.200;2023-02-28T05:01:47;7.62;;;4.60;;
9485;SDS011;4781;48.776;9.200;2023-02-28T05:04:16;11.63;;;5.03;;
9485;SDS011;4781;48.776;9.200;2023-02-28T05:06:45;9.15;;;4.92;;
9485;SDS011;4781;48.776;9.200;2023-02-28T05:09:13;9.40;;;5.62;;
9485;SDS011;4781;48.776;9.200;2023-02-28T05:11:42;10.18;;;5.22;;
9485;SDS011;4781;48.776;9.200;2023-02-28T05:14:11;8.35;;;5.15;;
9485;SDS011;4781;48.776;9.200;2023-02-28T05:16:41;10.15;;;4.40;;
9485;SDS011;4781;48.776;9.200;2023-02-28T05:19:10;8.50;;;4.97;;
9485;SDS011;4781;48.776;9.200;2023-02-28T05:21:39;9.90;;;4.95;;
9485;SDS011;4781;48.776;9.200;2023-02-28T05:24:19;9.28;;;5.20;;
9485;SDS011;4781;48.776;9.200;2023-02-28T05:26:52;7.87;;;4.85;;
9485;SDS011;4781;48.776;9.200;2023-02-28T05:29:21;9.60;;;4.85;;
9485;SDS011;4781;48.776;9.200;2023-02-28T05:31:53;10.28;;;5.08;;
9485;SDS011;4781;48.776;9.200;2023-02-28T05:34:21;9.93;;;5.25;;
9485;SDS011;4781;48.776;9.200;2023-02-28T05:36:50;9.55;;;5.25;;
9485;SDS011;4781;48.776;9.200;2023-02-28T05:39:20;7.95;;;4.87;;
9485;SDS011;4781;48.776;9.200;2023-02-28T05:41:48;7.80;;;4.97;;
9485;SDS011;4781;48.776;9.200;2023-02-28T05:44:16;13.58;;;5.67;;
9485;SDS011;4781;48.776;9.200;2023-02-28T05:46:45;9.73;;;5.65;;
9485;SDS011;4781;48.776;9.200;2023-02-28T05:49:13;9.30;;;5.50;;
9485;SDS011;4781;48.776;9.200;2023-02-28T05:51:45;9.05;;;5.55;;
9485;SDS011;4781;48.776;9.200;2023-02-28T05:54:14;9.63;;;5.75;;
9485;SDS011;4781;48.776;9.200;2023-02-28T05:56:42;9.98;;;5.97;;
9485;SDS011;4781;48.776;9.200;2023-02-28T05:59:14;10.15;;;5.58;;
9485;SDS011;4781;48.776;9.200;2023-02-28T06:01:43;9.05;;;5.40;;
9485;SDS011;4781;48.776;9.200;2023-02-28T06:04:16;9.90;;;5.40;;
9485;SDS011;4781;48.776;9.200;2023-02-28T06:06:47;9.90;;;5.47;;
9485;SDS011;4781;48.776;9.200;2023-02-28T06:09:16;9.25;;;5.55;;
9485;SDS011;4781;48.776;9.200;2023-02-28T06:11:49;10.70;;;5.67;;
9485;SDS011;4781;48.776;9.200;2023-02-28T06:14:18;9.80;;;5.60;;
9485;SDS011;4781;48.776;9.200;2023-02-28T06:16:49;8.68;;;5.75;;
9485;SDS011;4781;48.776;9.200;2023-02-28T06:19:17;8.93;;;4.85;;
9485;SDS011;4781;48.776;9.200;2023-02-28T06:21:54;10.78;;;5.90;;
9485;SDS011;4781;48.776;9.200;2023-02-28T06:24:18;11.00;;;6.10;;
9485;SDS011;4781;48.776;9.200;2023-02-28T06:26:48;9.30;;;5.42;;
9485;SDS011;4781;48.776;9.200;2023-02-28T06:29:17;9.20;;;5.53;;
9485;SDS011;4781;48.776;9.200;2023-02-28T06:31:45;9.78;;;5.70;;
9485;SDS011;4781;48.776;9.200;2023-02-28T06:34:14;13.53;;;6.50;;
9485;SDS011;4781;48.776;9.200;2023-02-28T06:36:43;8.63;;;5.78;;
9485;SDS011;4781;48.776;9.200;2023-02-28T06:39:11;9.08;;;5.55;;
9485;SDS011;4781;48.776;9.200;2023-02-28T06:41:39;10.78;;;6.30;;
9485;SDS011;4781;48.776;9.200;2023-02-28T06:44:12;10.55;;;6.28;;
9485;SDS011;4781;48.776;9.200;2023-02-28T06:46:43;14.28;;;6.83;;
9485;SDS011;4781;48.776;9.200;2023-02-28T06:49:12;12.20;;;6.45;;
9485;SDS011;4781;48.776;9.200;2023-02-28T06:51:42;10.10;;;5.75;;
9485;SDS011;4781;48.776;9.200;2023-02-28T06:54:12;10.40;;;6.15;;
9485;SDS011;4781;48.776;9.200;2023-02-28T06:56:40;10.85;;;5.92;;
9485;SDS011;4781;48.776;9.200;2023-02-28T06:59:09;12.13;;;6.30;;
9485;SDS011;4781;48.776;9.200;2023-02-28T07:01:37;10.23;;;6.00;;
9485;SDS011;4781;48.776;9.200;2023-02-28T07:04:06;12.75;;;6.25;;
9485;SDS011;4781;48.776;9.200;2023-02-28T07:06:34;11.57;;;6.20;;
9485;SDS011;4781;48.776;9.200;2023-02-28T07:09:03;9.75;;;6.50;;
9485;SDS011;4781;48.776;9.200;2023-02-28T07:11:31;12.45;;;6.45;;
9485;SDS011;4781;48.776;9.200;2023-02-28T07:14:00;13.45;;;7.60;;
9485;SDS011;4781;48.776;9.200;2023-02-28T07:16:28;12.25;;;6.80;;
9485;SDS011;4781;48.776;9.200;2023-02-28T07:18:56;11.05;;;6.47;;
9485;SDS011;4781;48.776;9.200;2023-02-28T07:21:25;10.78;;;6.92;;
9485;SDS011;4781;48.776;9.200;2023-02-28T07:23:53;12.55;;;6.50;;
9485;SDS011;4781;48.776;9.200;2023-02-28T07:26:23;10.23;;;6.37;;
9485;SDS011;4781;48.776;9.200;2023-02-28T07:28:52;11.30;;;7.17;;
9485;SDS011;4781;48.776;9.200;2023-02-28T07:31:20;11.33;;;7.10;;
9485;SDS011;4781;48.776;9.200;2023-02-28T07:33:48;10.93;;;7.53;;
9485;SDS011;4781;48.776;9.200;2023-02-28T07:36:17;11.97;;;7.78;;
9485;SDS011;4781;48.776;9.200;2023-02-28T07:38:46;10.55;;;6.92;;
9485;SDS011;4781;48.776;9.200;2023-02-28T07:41:17;12.85;;;7.85;;
9485;SDS011;4781;48.776;9.200;2023-02-28T07:43:48;12.85;;;7.70;;
9485;SDS011;4781;48.776;9.200;2023-02-28T07:46:19;12.90;;;7.40;;
9485;SDS011;4781;48.776;9.200;2023-02-28T07:48:48;14.15;;;7.50;;
9485;SDS011;4781;48.776;9.200;2023-02-28T07:51:17;13.83;;;7.72;;
9485;SDS011;4781;48.776;9.200;2023-02-28T07:53:45;12.00;;;7.65;;
9485;SDS011;4781;48.776;9.200;2023-02-28T07:58:49;11.65;;;7.40;;
9485;SDS011;4781;48.776;9.200;2023-02-28T08:01:17;15.72;;;7.85;;
9485;SDS011;4781;48.776;9.200;2023-02-28T08:03:46;14.73;;;7.58;;
9485;SDS011;4781;48.776;9.200;2023-02-28T08:06:18;13.32;;;7.53;;
9485;SDS011;4781;48.776;9.200;2023-02-28T08:08:48;12.60;;;7.28;;
9485;SDS011;4781;48.776;9.200;2023-02-28T08:11:17;13.28;;;7.83;;
9485;SDS011;4781;48.776;9.200;2023-02-28T08:13:46;12.60;;;7.40;;
9485;SDS011;4781;48.776;9.200;2023-02-28T08:16:14;12.43;;;7.78;;
9485;SDS011;4781;48.776;9.200;2023-02-28T08:18:44;13.38;;;7.95;;
9485;SDS011;4781;48.776;9.200;2023-02-28T08:21:13;14.90;;;9.13;;
9485;SDS011;4781;48.776;9.200;2023-02-28T08:23:41;12.28;;;8.25;;
9485;SDS011;4781;48.776;9.200;2023-02-28T08:26:10;12.40;;;7.67;;
9485;SDS011;4781;48.776;9.200;2023-02-28T08:28:38;19.60;;;8.38;;
9485;SDS011;4781;48.776;9.200;2023-02-28T08:31:07;13.58;;;8.90;;
9485;SDS011;4781;48.776;9.200;2023-02-28T08:33:37;11.57;;;7.67;;
9485;SDS011;4781;48.776;9.200;2023-02-28T08:36:07;12.90;;;7.53;;
9485;SDS011;4781;48.776;9.200;2023-02-28T08:38:36;13.95;;;8.78;;
9485;SDS011;4781;48.776;9.200;2023-02-28T08:41:06;11.55;;;7.72;;
9485;SDS011;4781;48.776;9.200;2023-02-28T08:43:37;12.68;;;8.00;;
9485;SDS011;4781;48.776;9.200;2023-02-28T08:46:06;15.43;;;8.75;;
9485;SDS011;4781;48.776;9.200;2023-02-28T08:48:39;13.18;;;8.48;;
9485;SDS011;4781;48.776;9.200;2023-02-28T08:51:09;19.77;;;8.25;;
9485;SDS011;4781;48.776;9.200;2023-02-28T08:53:42;14.13;;;8.33;;
9485;SDS011;4781;48.776;9.200;2023-02-28T08:56:12;12.13;;;7.67;;
9485;SDS011;4781;48.776;9.200;2023-02-28T08:58:43;13.48;;;8.70;;
9485;SDS011;4781;48.776;9.200;2023-02-28T09:01:16;15.05;;;8.58;;
9485;SDS011;4781;48.776;9.200;2023-02-28T09:03:48;13.25;;;7.97;;
9485;SDS011;4781;48.776;9.200;2023-02-28T09:06:19;12.15;;;7.72;;
9485;SDS011;4781;48.776;9.200;2023-02-28T09:08:50;13.85;;;8.28;;
9485;SDS011;4781;48.776;9.200;2023-02-28T09:11:19;18.87;;;11.18;;
9485;SDS011;4781;48.776;9.200;2023-02-28T09:13:48;30.70;;;15.10;;
9485;SDS011;4781;48.776;9.200;2023-02-28T09:16:16;47.15;;;19.07;;
9485;SDS011;4781;48.776;9.200;2023-02-28T09:18:45;17.50;;;10.03;;
9485;SDS011;4781;48.776;9.200;2023-02-28T09:21:15;17.82;;;8.90;;
9485;SDS011;4781;48.776;9.200;2023-02-28T09:23:46;13.00;;;8.38;;
9485;SDS011;4781;48.776;9.200;2023-02-28T09:26:17;13.10;;;9.05;;
9485;SDS011;4781;48.776;9.200;2023-02-28T09:28:54;12.55;;;8.30;;
9485;SDS011;4781;48.776;9.200;2023-02-28T09:31:25;13.80;;;7.97;;
9485;SDS011;4781;48.776;9.200;2023-02-28T09:33:56;12.82;;;8.00;;
9485;SDS011;4781;48.776;9.200;2023-02-28T09:36:27;15.98;;;8.85;;
9485;SDS011;4781;48.776;9.200;2023-02-28T09:38:55;14.38;;;8.53;;
9485;SDS011;4781;48.776;9.200;2023-02-28T09:41:27;14.75;;;8.78;;
9485;SDS011;4781;48.776;9.200;2023-02-28T09:44:02;14.65;;;7.97;;
9485;SDS011;4781;48.776;9.200;2023-02-28T09:46:43;12.30;;;8.45;;
9485;SDS011;4781;48.776;9.200;2023-02-28T09:49:16;14.50;;;9.05;;
9485;SDS011;4781;48.776;9.200;2023-02-28T09:51:49;14.05;;;9.45;;
9485;SDS011;4781;48.776;9.200;2023-02-28T09:54:35;14.30;;;8.15;;
9485;SDS011;4781;48.776;9.200;2023-02-28T09:59:54;18.50;;;8.70;;
9485;SDS011;4781;48.776;9.200;2023-02-28T10:02:41;13.68;;;8.43;;
9485;SDS011;4781;48.776;9.200;2023-02-28T10:05:38;13.75;;;8.88;;
9485;SDS011;4781;48.776;9.200;2023-02-28T10:08:11;12.85;;;8.28;;
9485;SDS011;4781;48.776;9.200;2023-02-28T10:10:48;15.98;;;8.63;;
9485;SDS011;4781;48.776;9.200;2023-02-28T10:13:36;17.20;;;8.75;;
9485;SDS011;4781;48.776;9.200;2023-02-28T10:16:25;12.30;;;8.35;;
9485;SDS011;4781;48.776;9.200;2023-02-28T10:19:19;14.20;;;8.58;;
9485;SDS011;4781;48.776;9.200;2023-02-28T10:22:23;14.50;;;8.83;;
9485;SDS011;4781;48.776;9.200;2023-02-28T10:25:15;17.92;;;8.95;;
9485;SDS011;4781;48.776;9.200;2023-02-28T10:27:45;14.00;;;9.08;;
9485;SDS011;4781;48.776;9.200;2023-02-28T10:30:13;15.23;;;9.40;;
9485;SDS011;4781;48.776;9.200;2023-02-28T10:32:45;13.35;;;9.28;;
9485;SDS011;4781;48.776;9.200;2023-02-28T10:35:18;13.60;;;9.00;;
9485;SDS011;4781;48.776;9.200;2023-02-28T10:37:56;14.28;;;8.83;;
9485;SDS011;4781;48.776;9.200;2023-02-28T10:56:03;13.20;;;8.68;;
9485;SDS011;4781;48.776;9.200;2023-02-28T10:58:57;14.23;;;8.93;;
9485;SDS011;4781;48.776;9.200;2023-02-28T11:01:39;12.45;;;8.05;;
9485;SDS011;4781;48.776;9.200;2023-02-28T11:07:03;13.45;;;8.80;;
9485;SDS011;4781;48.776;9.200;2023-02-28T11:09:36;13.78;;;8.83;;
9485;SDS011;4781;48.776;9.200;2023-02-28T11:12:24;15.05;;;9.15;;
9485;SDS011;4781;48.776;9.200;2023-02-28T11:15:03;13.68;;;8.55;;
9485;SDS011;4781;48.776;9.200;2023-02-28T11:17:53;13.20;;;8.75;;
9485;SDS011;4781;48.776;9.200;2023-02-28T11:20:25;11.20;;;8.10;;
9485;SDS011;4781;48.776;9.200;2023-02-28T11:22:57;13.50;;;9.50;;
9485;SDS011;4781;48.776;9.200;2023-02-28T11:25:29;14.45;;;8.85;;
9485;SDS011;4781;48.776;9.200;2023-02-28T11:28:02;13.00;;;8.60;;
9485;SDS011;4781;48.776;9.200;2023-02-28T11:36:12;15.30;;;9.60;;
9485;SDS011;4781;48.776;9.200;2023-02-28T11:38:43;12.23;;;8.45;;
9485;SDS011;4781;48.776;9.200;2023-02-28T11:50:03;11.57;;;8.25;;
9485;SDS011;4781;48.776;9.200;2023-02-28T11:52:35;12.40;;;8.80;;
9485;SDS011;4781;48.776;9.200;2023-02-28T12:04:17;12.28;;;8.70;;
9485;SDS011;4781;48.776;9.200;2023-02-28T12:07:04;14.68;;;9.03;;
9485;SDS011;4781;48.776;9.200;2023-02-28T12:19:12;10.58;;;7.87;;
9485;SDS011;4781;48.776;9.200;2023-02-28T12:22:05;11.60;;;8.15;;
9485;SDS011;4781;48.776;9.200;2023-02-28T12:27:53;12.43;;;8.30;;
9485;SDS011;4781;48.776;9.200;2023-02-28T12:30:23;12.77;;;8.10;;
9485;SDS011;4781;48.776;9.200;2023-02-28T12:41:17;11.48;;;8.25;;
9485;SDS011;4781;48.776;9.200;2023-02-28T12:43:57;13.48;;;8.90;;
9485;SDS011;4781;48.776;9.200;2023-02-28T12:46:51;11.93;;;8.35;;
9485;SDS011;4781;48.776;9.200;2023-02-28T12:49:24;13.53;;;8.70;;
9485;SDS011;4781;48.776;9.200;2023-02-28T12:51:59;13.10;;;8.53;;
9485;SDS011;4781;48.776;9.200;2023-02-28T12:54:30;13.32;;;9.10;;
9485;SDS011;4781;48.776;9.200;2023-02-28T13:00:18;13.95;;;8.95;;
9485;SDS011;4781;48.776;9.200;2023-02-28T13:09:02;11.43;;;8.05;;
9485;SDS011;4781;48.776;9.200;2023-02-28T13:11:38;11.30;;;8.03;;
9485;SDS011;4781;48.776;9.200;2023-02-28T13:14:25;11.45;;;8.53;;
9485;SDS011;4781;48.776;9.200;2023-02-28T13:17:03;12.47;;;8.50;;
9485;SDS011;4781;48.776;9.200;2023-02-28T13:19:38;11.78;;;8.53;;
9485;SDS011;4781;48.776;9.200;2023-02-28T13:36:08;15.72;;;8.75;;
9485;SDS011;4781;48.776;9.200;2023-02-28T13:38:50;11.73;;;8.65;;
9485;SDS011;4781;48.776;9.200;2023-02-28T13:44:14;11.53;;;8.80;;
9485;SDS011;4781;48.776;9.200;2023-02-28T14:00:43;12.55;;;7.75;;
9485;SDS011;4781;48.776;9.200;2023-02-28T14:03:46;11.70;;;7.65;;
9485;SDS011;4781;48.776;9.200;2023-02-28T14:06:51;10.53;;;7.70;;
9485;SDS011;4781;48.776;9.200;2023-02-28T14:09:23;13.60;;;8.03;;
9485;SDS011;4781;48.776;9.200;2023-02-28T14:11:58;14.83;;;8.08;;
9485;SDS011;4781;48.776;9.200;2023-02-28T14:17:53;11.60;;;8.23;;
9485;SDS011;4781;48.776;9.200;2023-02-28T14:20:26;12.00;;;8.28;;
9485;SDS011;4781;48.776;9.200;2023-02-28T14:29:18;11.88;;;7.47;;
9485;SDS011;4781;48.776;9.200;2023-02-28T14:38:35;12.78;;;7.50;;
9485;SDS011;4781;48.776;9.200;2023-02-28T14:41:03;14.07;;;7.95;;
9485;SDS011;4781;48.776;9.200;2023-02-28T14:43:34;17.10;;;8.43;;
9485;SDS011;4781;48.776;9.200;2023-02-28T14:46:03;13.38;;;7.53;;
9485;SDS011;4781;48.776;9.200;2023-02-28T14:48:33;14.87;;;8.00;;
9485;SDS011;4781;48.776;9.200;2023-02-28T14:51:04;12.07;;;7.55;;
9485;SDS011;4781;48.776;9.200;2023-02-28T14:53:35;13.00;;;8.15;;
9485;SDS011;4781;48.776;9.200;2023-02-28T14:56:04;11.55;;;7.55;;
9485;SDS011;4781;48.776;9.200;2023-02-28T14:58:34;12.98;;;8.05;;
9485;SDS011;4781;48.776;9.200;2023-02-28T15:01:03;14.78;;;8.20;;
9485;SDS011;4781;48.776;9.200;2023-02-28T15:03:37;14.83;;;8.40;;
9485;SDS011;4781;48.776;9.200;2023-02-28T15:06:15;20.23;;;11.28;;
9485;SDS011;4781;48.776;9.200;2023-02-28T15:08:46;15.85;;;9.43;;
9485;SDS011;4781;48.776;9.200;2023-02-28T15:11:16;14.65;;;10.53;;
9485;SDS011;4781;48.776;9.200;2023-02-28T15:13:48;16.37;;;9.48;;
9485;SDS011;4781;48.776;9.200;2023-02-28T15:16:25;12.47;;;8.18;;
9485;SDS011;4781;48.776;9.200;2023-02-28T15:21:43;14.80;;;9.48;;
9485;SDS011;4781;48.776;9.200;2023-02-28T15:24:17;11.70;;;8.53;;
9485;SDS011;4781;48.776;9.200;2023-02-28T15:27:05;13.15;;;7.97;;
9485;SDS011;4781;48.776;9.200;2023-02-28T15:29:56;17.50;;;8.90;;
9485;SDS011;4781;48.776;9.200;2023-02-28T15:32:30;11.08;;;8.15;;
9485;SDS011;4781;48.776;9.200;2023-02-28T15:35:17;12.88;;;8.50;;
9485;SDS011;4781;48.776;9.200;2023-02-28T15:37:55;13.15;;;8.23;;
9485;SDS011;4781;48.776;9.200;2023-02-28T15:43:17;12.63;;;8.50;;
9485;SDS011;4781;48.776;9.200;2023-02-28T15:46:01;11.85;;;7.87;;
9485;SDS011;4781;48.776;9.200;2023-02-28T15:51:28;10.70;;;7.97;;
9485;SDS011;4781;48.776;9.200;2023-02-28T15:54:07;12.28;;;8.60;;
9485;SDS011;4781;48.776;9.200;2023-02-28T15:56:43;11.12;;;7.97;;
9485;SDS011;4781;48.776;9.200;2023-02-28T15:59:15;11.83;;;8.23;;
9485;SDS011;4781;48.776;9.200;2023-02-28T16:01:47;12.88;;;8.70;;
9485;SDS011;4781;48.776;9.200;2023-02-28T16:04:30;12.18;;;8.33;;
9485;SDS011;4781;48.776;9.200;2023-02-28T16:09:30;13.18;;;7.97;;
9485;SDS011;4781;48.776;9.200;2023-02-28T16:12:00;12.98;;;8.58;;
9485;SDS011;4781;48.776;9.200;2023-02-28T16:14:31;11.38;;;8.00;;
9485;SDS011;4781;48.776;9.200;2023-02-28T16:17:13;12.03;;;8.60;;
9485;SDS011;4781;48.776;9.200;2023-02-28T16:19:36;11.90;;;8.53;;
9485;SDS011;4781;48.776;9.200;2023-02-28T16:22:04;16.93;;;10.03;;
9485;SDS011;4781;48.776;9.200;2023-02-28T16:24:34;15.93;;;10.38;;
9485;SDS011;4781;48.776;9.200;2023-02-28T16:27:04;14.98;;;9.38;;
9485;SDS011;4781;48.776;9.200;2023-02-28T16:29:34;12.75;;;9.05;;
9485;SDS011;4781;48.776;9.200;2023-02-28T16:32:04;15.08;;;8.45;;
9485;SDS011;4781;48.776;9.200;2023-02-28T16:34:33;12.43;;;8.48;;
9485;SDS011;4781;48.776;9.200;2023-02-28T16:39:49;12.03;;;8.80;;
9485;SDS011;4781;48.776;9.200;2023-02-28T16:42:21;13.25;;;8.90;;
9485;SDS011;4781;48.776;9.200;2023-02-28T16:47:21;12.47;;;7.72;;
9485;SDS011;4781;48.776;9.200;2023-02-28T16:49:52;13.65;;;8.43;;
9485;SDS011;4781;48.776;9.200;2023-02-28T16:52:20;11.25;;;8.40;;
9485;SDS011;4781;48.776;9.200;2023-02-28T16:54:48;13.30;;;8.68;;
9485;SDS011;4781;48.776;9.200;2023-02-28T16:57:20;14.25;;;8.83;;
9485;SDS011;4781;48.776;9.200;2023-02-28T16:59:50;13.18;;;8.65;;
9485;SDS011;4781;48.776;9.200;2023-02-28T17:02:19;13.25;;;8.73;;
9485;SDS011;4781;48.776;9.200;2023-02-28T17:04:47;15.00;;;8.88;;
9485;SDS011;4781;48.776;9.200;2023-02-28T17:07:16;13.00;;;8.93;;
9485;SDS011;4781;48.776;9.200;2023-02-28T17:09:45;15.85;;;8.88;;
9485;SDS011;4781;48.776;9.200;2023-02-28T17:12:13;16.80;;;9.23;;
9485;SDS011;4781;48.776;9.200;2023-02-28T17:17:18;14.98;;;8.80;;
9485;SDS011;4781;48.776;9.200;2023-02-28T17:19:48;15.10;;;9.40;;
9485;SDS011;4781;48.776;9.200;2023-02-28T17:22:16;17.23;;;9.58;;
9485;SDS011;4781;48.776;9.200;2023-02-28T17:24:45;13.90;;;8.58;;
9485;SDS011;4781;48.776;9.200;2023-02-28T17:27:13;12.60;;;8.75;;
9485;SDS011;4781;48.776;9.200;2023-02-28T17:29:41;13.95;;;9.05;;
9485;SDS011;4781;48.776;9.200;2023-02-28T17:32:10;15.15;;;9.38;;
9485;SDS011;4781;48.776;9.200;2023-02-28T17:34:38;13.20;;;8.83;;
9485;SDS011;4781;48.776;9.200;2023-02-28T17:37:08;14.38;;;8.90;;
9485;SDS011;4781;48.776;9.200;2023-02-28T17:39:37;15.70;;;9.50;;
9485;SDS011;4781;48.776;9.200;2023-02-28T17:42:05;15.93;;;9.70;;
9485;SDS011;4781;48.776;9.200;2023-02-28T17:44:34;15.38;;;10.18;;
9485;SDS011;4781;48.776;9.200;2023-02-28T17:47:03;16.82;;;10.28;;
9485;SDS011;4781;48.776;9.200;2023-02-28T17:49:31;22.30;;;12.50;;
9485;SDS011;4781;48.776;9.200;2023-02-28T17:52:00;25.95;;;13.68;;
9485;SDS011;4781;48.776;9.200;2023-02-28T17:54:28;20.57;;;12.00;;
9485;SDS011;4781;48.776;9.200;2023-02-28T17:56:57;20.85;;;11.55;;
9485;SDS011;4781;48.776;9.200;2023-02-28T17:59:25;20.15;;;11.93;;
9485;SDS011;4781;48.776;9.200;2023-02-28T18:02:04;20.97;;;11.38;;
9485;SDS011;4781;48.776;9.200;2023-02-28T18:04:29;18.60;;;10.85;;
9485;SDS011;4781;48.776;9.200;2023-02-28T18:06:57;17.62;;;10.82;;
9485;SDS011;4781;48.776;9.200;2023-02-28T18:09:26;15.83;;;10.68;;
9485;SDS011;4781;48.776;9.200;2023-02-28T18:11:55;18.00;;;10.03;;
9485;SDS011;4781;48.776;9.200;2023-02-28T18:14:24;17.80;;;10.28;;
9485;SDS011;4781;48.776;9.200;2023-02-28T18:16:53;15.85;;;9.78;;
9485;SDS011;4781;48.776;9.200;2023-02-28T18:19:22;17.52;;;11.03;;
9485;SDS011;4781;48.776;9.200;2023-02-28T18:21:52;20.90;;;11.15;;
9485;SDS011;4781;48.776;9.200;2023-02-28T18:24:21;17.45;;;10.18;;
9485;SDS011;4781;48.776;9.200;2023-02-28T18:26:50;19.52;;;11.45;;
9485;SDS011;4781;48.776;9.200;2023-02-28T18:29:25;17.92;;;11.57;;
9485;SDS011;4781;48.776;9.200;2023-02-28T18:31:51;19.87;;;12.30;;
9485;SDS011;4781;48.776;9.200;2023-02-28T18:34:22;16.60;;;11.90;;